sensor_id;sensor_type;location;lat;lon;timestamp;P1;durP1;ratioP1;P2;durP2;ratioP2
70744;SDS011;59284;31.390;34.904;2023-04-24T00:01:39;12.50;;;6.70;;
70744;SDS011;59284;31.390;34.904;2023-04-24T00:04:05;13.70;;;7.50;;
70744;SDS011;59284;31.390;34.904;2023-04-24T00:06:32;14.60;;;7.82;;
70744;SDS011;59284;31.390;34.904;2023-04-24T00:09:01;14.80;;;7.20;;
70744;SDS011;59284;31.390;34.904;2023-04-24T00:11:27;11.95;;;7.40;;
70744;SDS011;59284;31.390;34.904;2023-04-24T00:13:53;9.63;;;5.05;;
70744;SDS011;59284;31.390;34.904;2023-04-24T00:16:19;7.72;;;4.78;;
70744;SDS011;59284;31.390;34.904;2023-04-24T00:18:45;7.57;;;4.20;;
70744;SDS011;59284;31.390;34.904;2023-04-24T00:21:12;8.95;;;4.32;;
70744;SDS011;59284;31.390;34.904;2023-04-24T00:23:39;6.45;;;3.60;;
70744;SDS011;59284;31.390;34.904;2023-04-24T00:26:04;6.53;;;2.90;;
70744;SDS011;59284;31.390;34.904;2023-04-24T00:28:30;5.77;;;2.67;;
70744;SDS011;59284;31.390;34.904;2023-04-24T00:30:55;5.53;;;2.37;;
70744;SDS011;59284;31.390;34.904;2023-04-24T00:33:21;5.00;;;1.90;;
70744;SDS011;59284;31.390;34.904;2023-04-24T00:35:47;3.50;;;1.63;;
70744;SDS011;59284;31.390;34.904;2023-04-24T00:38:12;4.50;;;1.90;;
70744;SDS011;59284;31.390;34.904;2023-04-24T00:40:38;3.28;;;1.40;;
70744;SDS011;59284;31.390;34.904;2023-04-24T00:43:03;4.20;;;1.80;;
70744;SDS011;59284;31.390;34.904;2023-04-24T00:45:29;3.40;;;1.70;;
70744;SDS011;59284;31.390;34.904;2023-04-24T00:47:56;3.95;;;1.67;;
70744;SDS011;59284;31.390;34.904;2023-04-24T00:50:22;3.50;;;1.53;;
70744;SDS011;59284;31.390;34.904;2023-04-24T00:52:49;4.32;;;1.90;;
70744;SDS011;59284;31.390;34.904;2023-04-24T00:55:15;4.88;;;2.03;;
70744;SDS011;59284;31.390;34.904;2023-04-24T00:57:41;3.77;;;1.63;;
70744;SDS011;59284;31.390;34.904;2023-04-24T01:00:07;4.80;;;2.00;;
70744;SDS011;59284;31.390;34.904;2023-04-24T01:02:36;4.25;;;2.10;;
70744;SDS011;59284;31.390;34.904;2023-04-24T01:05:05;3.53;;;1.70;;
70744;SDS011;59284;31.390;34.904;2023-04-24T01:07:34;4.18;;;1.77;;
70744;SDS011;59284;31.390;34.904;2023-04-24T01:10:00;4.82;;;1.73;;
70744;SDS011;59284;31.390;34.904;2023-04-24T01:12:25;4.00;;;1.97;;
70744;SDS011;59284;31.390;34.904;2023-04-24T01:14:51;3.35;;;1.30;;
70744;SDS011;59284;31.390;34.904;2023-04-24T01:17:17;3.13;;;1.70;;
70744;SDS011;59284;31.390;34.904;2023-04-24T01:19:42;5.40;;;1.73;;
70744;SDS011;59284;31.390;34.904;2023-04-24T01:22:13;3.38;;;1.55;;
70744;SDS011;59284;31.390;34.904;2023-04-24T01:24:39;4.47;;;1.80;;
70744;SDS011;59284;31.390;34.904;2023-04-24T01:27:06;5.57;;;1.77;;
70744;SDS011;59284;31.390;34.904;2023-04-24T01:29:32;3.13;;;1.60;;
70744;SDS011;59284;31.390;34.904;2023-04-24T01:31:58;4.50;;;1.50;;
70744;SDS011;59284;31.390;34.904;2023-04-24T01:34:23;3.70;;;1.42;;
70744;SDS011;59284;31.390;34.904;2023-04-24T01:36:49;5.67;;;1.70;;
70744;SDS011;59284;31.390;34.904;2023-04-24T01:39:15;3.17;;;1.60;;
70744;SDS011;59284;31.390;34.904;2023-04-24T01:41:41;4.47;;;1.52;;
70744;SDS011;59284;31.390;34.904;2023-04-24T01:44:07;2.90;;;1.48;;
70744;SDS011;59284;31.390;34.904;2023-04-24T01:46:33;2.37;;;1.37;;
70744;SDS011;59284;31.390;34.904;2023-04-24T01:48:59;3.95;;;1.70;;
70744;SDS011;59284;31.390;34.904;2023-04-24T01:51:25;5.30;;;1.42;;
70744;SDS011;59284;31.390;34.904;2023-04-24T01:53:52;3.27;;;1.47;;
70744;SDS011;59284;31.390;34.904;2023-04-24T01:56:19;5.68;;;1.45;;
70744;SDS011;59284;31.390;34.904;2023-04-24T01:58:45;4.45;;;1.90;;
70744;SDS011;59284;31.390;34.904;2023-04-24T02:01:15;4.88;;;1.48;;
70744;SDS011;59284;31.390;34.904;2023-04-24T02:03:44;2.92;;;1.40;;
70744;SDS011;59284;31.390;34.904;2023-04-24T02:06:10;2.33;;;1.10;;
70744;SDS011;59284;31.390;34.904;2023-04-24T02:08:35;5.93;;;0.93;;
70744;SDS011;59284;31.390;34.904;2023-04-24T02:11:01;3.40;;;1.63;;
70744;SDS011;59284;31.390;34.904;2023-04-24T02:13:27;2.85;;;1.23;;
70744;SDS011;59284;31.390;34.904;2023-04-24T02:15:53;2.37;;;1.03;;
70744;SDS011;59284;31.390;34.904;2023-04-24T02:18:18;2.53;;;1.25;;
70744;SDS011;59284;31.390;34.904;2023-04-24T02:20:44;3.20;;;1.55;;
70744;SDS011;59284;31.390;34.904;2023-04-24T02:23:10;4.70;;;1.40;;
70744;SDS011;59284;31.390;34.904;2023-04-24T02:25:36;3.97;;;1.30;;
70744;SDS011;59284;31.390;34.904;2023-04-24T02:28:02;4.43;;;1.47;;
70744;SDS011;59284;31.390;34.904;2023-04-24T02:30:28;3.10;;;1.33;;
70744;SDS011;59284;31.390;34.904;2023-04-24T02:32:53;3.38;;;1.33;;
70744;SDS011;59284;31.390;34.904;2023-04-24T02:35:20;3.80;;;1.30;;
70744;SDS011;59284;31.390;34.904;2023-04-24T02:37:45;2.88;;;1.30;;
70744;SDS011;59284;31.390;34.904;2023-04-24T02:40:11;2.57;;;1.10;;
70744;SDS011;59284;31.390;34.904;2023-04-24T02:42:37;2.80;;;1.27;;
70744;SDS011;59284;31.390;34.904;2023-04-24T02:45:03;4.15;;;1.40;;
70744;SDS011;59284;31.390;34.904;2023-04-24T02:47:28;3.40;;;1.23;;
70744;SDS011;59284;31.390;34.904;2023-04-24T02:49:54;5.38;;;1.20;;
70744;SDS011;59284;31.390;34.904;2023-04-24T02:52:20;6.17;;;1.00;;
70744;SDS011;59284;31.390;34.904;2023-04-24T02:54:45;4.18;;;1.35;;
70744;SDS011;59284;31.390;34.904;2023-04-24T02:57:11;4.33;;;1.10;;
70744;SDS011;59284;31.390;34.904;2023-04-24T02:59:37;6.15;;;1.52;;
70744;SDS011;59284;31.390;34.904;2023-04-24T03:02:02;6.27;;;1.10;;
70744;SDS011;59284;31.390;34.904;2023-04-24T03:04:28;9.35;;;1.10;;
70744;SDS011;59284;31.390;34.904;2023-04-24T03:06:54;4.53;;;0.83;;
70744;SDS011;59284;31.390;34.904;2023-04-24T03:09:22;7.40;;;1.10;;
70744;SDS011;59284;31.390;34.904;2023-04-24T03:11:48;9.77;;;0.90;;
70744;SDS011;59284;31.390;34.904;2023-04-24T03:14:14;3.38;;;0.90;;
70744;SDS011;59284;31.390;34.904;2023-04-24T03:16:40;4.97;;;1.10;;
70744;SDS011;59284;31.390;34.904;2023-04-24T03:19:06;4.73;;;0.80;;
70744;SDS011;59284;31.390;34.904;2023-04-24T03:21:31;7.25;;;1.27;;
70744;SDS011;59284;31.390;34.904;2023-04-24T03:23:57;2.37;;;0.70;;
70744;SDS011;59284;31.390;34.904;2023-04-24T03:26:23;7.03;;;1.13;;
70744;SDS011;59284;31.390;34.904;2023-04-24T03:28:48;3.03;;;0.90;;
70744;SDS011;59284;31.390;34.904;2023-04-24T03:31:14;3.45;;;0.70;;
70744;SDS011;59284;31.390;34.904;2023-04-24T03:33:40;4.18;;;1.00;;
70744;SDS011;59284;31.390;34.904;2023-04-24T03:36:06;8.20;;;1.10;;
70744;SDS011;59284;31.390;34.904;2023-04-24T03:38:32;2.75;;;0.90;;
70744;SDS011;59284;31.390;34.904;2023-04-24T03:40:57;2.23;;;0.93;;
70744;SDS011;59284;31.390;34.904;2023-04-24T03:43:23;3.78;;;1.00;;
70744;SDS011;59284;31.390;34.904;2023-04-24T03:45:48;3.27;;;1.40;;
70744;SDS011;59284;31.390;34.904;2023-04-24T03:48:14;4.47;;;1.40;;
70744;SDS011;59284;31.390;34.904;2023-04-24T03:50:40;8.80;;;1.67;;
70744;SDS011;59284;31.390;34.904;2023-04-24T03:53:05;9.83;;;1.67;;
70744;SDS011;59284;31.390;34.904;2023-04-24T03:55:31;4.35;;;1.40;;
70744;SDS011;59284;31.390;34.904;2023-04-24T03:57:56;4.63;;;1.10;;
70744;SDS011;59284;31.390;34.904;2023-04-24T04:00:22;5.18;;;1.40;;
70744;SDS011;59284;31.390;34.904;2023-04-24T04:02:47;2.60;;;1.10;;
70744;SDS011;59284;31.390;34.904;2023-04-24T04:05:13;2.57;;;0.97;;
70744;SDS011;59284;31.390;34.904;2023-04-24T04:07:39;4.60;;;1.30;;
70744;SDS011;59284;31.390;34.904;2023-04-24T04:10:04;5.50;;;1.10;;
70744;SDS011;59284;31.390;34.904;2023-04-24T04:12:32;3.53;;;0.98;;
70744;SDS011;59284;31.390;34.904;2023-04-24T04:14:57;4.55;;;0.95;;
70744;SDS011;59284;31.390;34.904;2023-04-24T04:17:23;4.77;;;0.90;;
70744;SDS011;59284;31.390;34.904;2023-04-24T04:19:49;3.38;;;0.95;;
70744;SDS011;59284;31.390;34.904;2023-04-24T04:22:14;6.30;;;0.97;;
70744;SDS011;59284;31.390;34.904;2023-04-24T04:24:40;5.10;;;0.80;;
70744;SDS011;59284;31.390;34.904;2023-04-24T04:27:06;4.47;;;0.80;;
70744;SDS011;59284;31.390;34.904;2023-04-24T04:29:33;4.25;;;0.70;;
70744;SDS011;59284;31.390;34.904;2023-04-24T04:31:59;6.27;;;0.97;;
70744;SDS011;59284;31.390;34.904;2023-04-24T04:34:25;7.25;;;0.80;;
70744;SDS011;59284;31.390;34.904;2023-04-24T04:36:50;5.03;;;0.90;;
70744;SDS011;59284;31.390;34.904;2023-04-24T04:39:16;3.42;;;0.88;;
70744;SDS011;59284;31.390;34.904;2023-04-24T04:41:43;6.43;;;0.80;;
70744;SDS011;59284;31.390;34.904;2023-04-24T04:44:11;6.33;;;1.10;;
70744;SDS011;59284;31.390;34.904;2023-04-24T04:46:37;14.55;;;1.42;;
70744;SDS011;59284;31.390;34.904;2023-04-24T04:49:03;6.88;;;0.80;;
70744;SDS011;59284;31.390;34.904;2023-04-24T04:51:29;9.88;;;1.13;;
70744;SDS011;59284;31.390;34.904;2023-04-24T04:53:56;10.57;;;1.40;;
70744;SDS011;59284;31.390;34.904;2023-04-24T04:56:21;9.43;;;0.60;;
70744;SDS011;59284;31.390;34.904;2023-04-24T04:58:47;7.37;;;1.00;;
70744;SDS011;59284;31.390;34.904;2023-04-24T05:01:13;7.35;;;0.80;;
70744;SDS011;59284;31.390;34.904;2023-04-24T05:03:38;9.05;;;0.90;;
70744;SDS011;59284;31.390;34.904;2023-04-24T05:06:04;7.07;;;0.87;;
70744;SDS011;59284;31.390;34.904;2023-04-24T05:08:30;5.57;;;1.40;;
70744;SDS011;59284;31.390;34.904;2023-04-24T05:10:56;3.50;;;0.80;;
70744;SDS011;59284;31.390;34.904;2023-04-24T05:13:22;7.03;;;0.88;;
70744;SDS011;59284;31.390;34.904;2023-04-24T05:15:47;10.50;;;1.87;;
70744;SDS011;59284;31.390;34.904;2023-04-24T05:18:13;8.15;;;1.08;;
70744;SDS011;59284;31.390;34.904;2023-04-24T05:20:38;5.67;;;1.17;;
70744;SDS011;59284;31.390;34.904;2023-04-24T05:23:04;6.90;;;1.00;;
70744;SDS011;59284;31.390;34.904;2023-04-24T05:25:30;6.80;;;1.10;;
70744;SDS011;59284;31.390;34.904;2023-04-24T05:28:00;2.83;;;1.08;;
70744;SDS011;59284;31.390;34.904;2023-04-24T05:30:26;8.38;;;1.33;;
70744;SDS011;59284;31.390;34.904;2023-04-24T05:32:51;5.67;;;0.70;;
70744;SDS011;59284;31.390;34.904;2023-04-24T05:35:17;8.55;;;1.00;;
70744;SDS011;59284;31.390;34.904;2023-04-24T05:37:43;4.68;;;0.88;;
70744;SDS011;59284;31.390;34.904;2023-04-24T05:40:09;4.80;;;0.90;;
70744;SDS011;59284;31.390;34.904;2023-04-24T05:42:36;3.58;;;0.88;;
70744;SDS011;59284;31.390;34.904;2023-04-24T05:45:01;2.87;;;0.90;;
70744;SDS011;59284;31.390;34.904;2023-04-24T05:47:28;2.28;;;1.00;;
70744;SDS011;59284;31.390;34.904;2023-04-24T05:49:53;1.92;;;0.75;;
70744;SDS011;59284;31.390;34.904;2023-04-24T05:52:19;3.83;;;0.80;;
70744;SDS011;59284;31.390;34.904;2023-04-24T05:54:44;2.33;;;0.70;;
70744;SDS011;59284;31.390;34.904;2023-04-24T05:57:10;2.10;;;0.80;;
70744;SDS011;59284;31.390;34.904;2023-04-24T05:59:36;3.33;;;0.73;;
70744;SDS011;59284;31.390;34.904;2023-04-24T06:02:03;3.83;;;0.85;;
70744;SDS011;59284;31.390;34.904;2023-04-24T06:04:29;2.08;;;0.85;;
70744;SDS011;59284;31.390;34.904;2023-04-24T06:06:55;4.00;;;1.00;;
70744;SDS011;59284;31.390;34.904;2023-04-24T06:09:21;2.53;;;0.80;;
70744;SDS011;59284;31.390;34.904;2023-04-24T06:11:47;2.92;;;1.00;;
70744;SDS011;59284;31.390;34.904;2023-04-24T06:14:14;1.98;;;0.73;;
70744;SDS011;59284;31.390;34.904;2023-04-24T06:16:42;3.70;;;1.13;;
70744;SDS011;59284;31.390;34.904;2023-04-24T06:19:08;2.38;;;0.57;;
70744;SDS011;59284;31.390;34.904;2023-04-24T06:21:34;4.00;;;1.00;;
70744;SDS011;59284;31.390;34.904;2023-04-24T06:23:59;2.95;;;1.05;;
70744;SDS011;59284;31.390;34.904;2023-04-24T06:26:25;2.00;;;0.70;;
70744;SDS011;59284;31.390;34.904;2023-04-24T06:28:51;3.05;;;0.88;;
70744;SDS011;59284;31.390;34.904;2023-04-24T06:31:19;2.88;;;1.30;;
70744;SDS011;59284;31.390;34.904;2023-04-24T06:33:45;4.47;;;0.80;;
70744;SDS011;59284;31.390;34.904;2023-04-24T06:36:11;3.23;;;0.80;;
70744;SDS011;59284;31.390;34.904;2023-04-24T06:38:37;4.28;;;1.05;;
70744;SDS011;59284;31.390;34.904;2023-04-24T06:41:03;3.42;;;1.00;;
70744;SDS011;59284;31.390;34.904;2023-04-24T06:43:30;2.67;;;0.90;;
70744;SDS011;59284;31.390;34.904;2023-04-24T06:45:59;2.20;;;0.90;;
70744;SDS011;59284;31.390;34.904;2023-04-24T06:48:25;2.58;;;0.85;;
70744;SDS011;59284;31.390;34.904;2023-04-24T06:50:51;11.07;;;1.38;;
70744;SDS011;59284;31.390;34.904;2023-04-24T06:53:17;5.35;;;1.30;;
70744;SDS011;59284;31.390;34.904;2023-04-24T06:55:43;3.17;;;0.83;;
70744;SDS011;59284;31.390;34.904;2023-04-24T06:58:11;5.22;;;0.80;;
70744;SDS011;59284;31.390;34.904;2023-04-24T07:00:36;8.53;;;1.33;;
70744;SDS011;59284;31.390;34.904;2023-04-24T07:03:02;9.93;;;1.63;;
70744;SDS011;59284;31.390;34.904;2023-04-24T07:05:30;6.65;;;1.52;;
70744;SDS011;59284;31.390;34.904;2023-04-24T07:07:56;6.67;;;1.30;;
70744;SDS011;59284;31.390;34.904;2023-04-24T07:10:23;6.63;;;1.55;;
70744;SDS011;59284;31.390;34.904;2023-04-24T07:12:49;3.47;;;1.10;;
70744;SDS011;59284;31.390;34.904;2023-04-24T07:15:15;5.37;;;1.37;;
70744;SDS011;59284;31.390;34.904;2023-04-24T07:17:41;8.15;;;1.08;;
70744;SDS011;59284;31.390;34.904;2023-04-24T07:20:10;5.43;;;1.20;;
70744;SDS011;59284;31.390;34.904;2023-04-24T07:22:39;3.97;;;1.15;;
70744;SDS011;59284;31.390;34.904;2023-04-24T07:25:05;3.03;;;1.10;;
70744;SDS011;59284;31.390;34.904;2023-04-24T07:27:32;4.97;;;1.33;;
70744;SDS011;59284;31.390;34.904;2023-04-24T07:29:57;10.27;;;1.55;;
70744;SDS011;59284;31.390;34.904;2023-04-24T07:32:23;4.13;;;1.42;;
70744;SDS011;59284;31.390;34.904;2023-04-24T07:34:49;4.80;;;1.43;;
70744;SDS011;59284;31.390;34.904;2023-04-24T07:37:14;4.80;;;1.10;;
70744;SDS011;59284;31.390;34.904;2023-04-24T07:39:40;5.68;;;1.50;;
70744;SDS011;59284;31.390;34.904;2023-04-24T07:42:06;6.80;;;1.33;;
70744;SDS011;59284;31.390;34.904;2023-04-24T07:44:31;2.45;;;1.05;;
70744;SDS011;59284;31.390;34.904;2023-04-24T07:46:57;2.70;;;1.20;;
70744;SDS011;59284;31.390;34.904;2023-04-24T07:49:23;2.67;;;1.00;;
70744;SDS011;59284;31.390;34.904;2023-04-24T07:51:49;3.55;;;1.30;;
70744;SDS011;59284;31.390;34.904;2023-04-24T07:54:15;7.77;;;1.40;;
70744;SDS011;59284;31.390;34.904;2023-04-24T07:56:41;6.30;;;1.50;;
70744;SDS011;59284;31.390;34.904;2023-04-24T07:59:08;4.20;;;1.45;;
70744;SDS011;59284;31.390;34.904;2023-04-24T08:01:35;3.67;;;1.17;;
70744;SDS011;59284;31.390;34.904;2023-04-24T08:04:01;6.20;;;1.50;;
70744;SDS011;59284;31.390;34.904;2023-04-24T08:06:28;2.90;;;1.52;;
70744;SDS011;59284;31.390;34.904;2023-04-24T08:08:58;7.97;;;1.40;;
70744;SDS011;59284;31.390;34.904;2023-04-24T08:11:25;4.53;;;1.27;;
70744;SDS011;59284;31.390;34.904;2023-04-24T08:13:50;5.87;;;1.40;;
70744;SDS011;59284;31.390;34.904;2023-04-24T08:16:16;5.80;;;1.20;;
70744;SDS011;59284;31.390;34.904;2023-04-24T08:18:42;3.97;;;1.40;;
70744;SDS011;59284;31.390;34.904;2023-04-24T08:21:07;5.70;;;1.30;;
70744;SDS011;59284;31.390;34.904;2023-04-24T08:23:33;5.20;;;1.30;;
70744;SDS011;59284;31.390;34.904;2023-04-24T08:25:58;4.33;;;1.73;;
70744;SDS011;59284;31.390;34.904;2023-04-24T08:28:24;6.35;;;1.20;;
70744;SDS011;59284;31.390;34.904;2023-04-24T08:30:50;3.30;;;1.38;;
70744;SDS011;59284;31.390;34.904;2023-04-24T08:33:20;6.67;;;1.50;;
70744;SDS011;59284;31.390;34.904;2023-04-24T08:35:46;6.97;;;1.30;;
70744;SDS011;59284;31.390;34.904;2023-04-24T08:38:12;7.18;;;1.75;;
70744;SDS011;59284;31.390;34.904;2023-04-24T08:40:38;6.30;;;1.40;;
70744;SDS011;59284;31.390;34.904;2023-04-24T08:43:04;6.35;;;1.45;;
70744;SDS011;59284;31.390;34.904;2023-04-24T08:45:30;6.03;;;1.30;;
70744;SDS011;59284;31.390;34.904;2023-04-24T08:47:56;8.90;;;1.20;;
70744;SDS011;59284;31.390;34.904;2023-04-24T08:50:23;4.90;;;1.27;;
70744;SDS011;59284;31.390;34.904;2023-04-24T08:52:49;4.15;;;1.23;;
70744;SDS011;59284;31.390;34.904;2023-04-24T08:55:16;6.73;;;1.50;;
70744;SDS011;59284;31.390;34.904;2023-04-24T08:57:44;8.15;;;1.27;;
70744;SDS011;59284;31.390;34.904;2023-04-24T09:00:11;7.40;;;1.75;;
70744;SDS011;59284;31.390;34.904;2023-04-24T09:02:39;5.40;;;1.50;;
70744;SDS011;59284;31.390;34.904;2023-04-24T09:05:07;5.40;;;1.08;;
70744;SDS011;59284;31.390;34.904;2023-04-24T09:07:34;7.93;;;1.47;;
70744;SDS011;59284;31.390;34.904;2023-04-24T09:10:01;3.15;;;1.30;;
70744;SDS011;59284;31.390;34.904;2023-04-24T09:12:27;7.85;;;1.65;;
70744;SDS011;59284;31.390;34.904;2023-04-24T09:14:53;6.73;;;1.30;;
70744;SDS011;59284;31.390;34.904;2023-04-24T09:17:19;7.05;;;1.25;;
70744;SDS011;59284;31.390;34.904;2023-04-24T09:19:44;8.50;;;1.83;;
70744;SDS011;59284;31.390;34.904;2023-04-24T09:22:10;4.37;;;1.30;;
70744;SDS011;59284;31.390;34.904;2023-04-24T09:24:36;4.70;;;1.58;;
70744;SDS011;59284;31.390;34.904;2023-04-24T09:27:02;11.20;;;1.97;;
70744;SDS011;59284;31.390;34.904;2023-04-24T09:29:27;11.02;;;1.77;;
70744;SDS011;59284;31.390;34.904;2023-04-24T09:31:53;4.03;;;1.10;;
70744;SDS011;59284;31.390;34.904;2023-04-24T09:34:22;7.07;;;1.53;;
70744;SDS011;59284;31.390;34.904;2023-04-24T09:36:50;9.02;;;1.50;;
70744;SDS011;59284;31.390;34.904;2023-04-24T09:39:16;5.72;;;1.60;;
70744;SDS011;59284;31.390;34.904;2023-04-24T09:41:46;7.90;;;1.33;;
70744;SDS011;59284;31.390;34.904;2023-04-24T09:44:14;6.60;;;1.47;;
70744;SDS011;59284;31.390;34.904;2023-04-24T09:46:42;6.95;;;1.65;;
70744;SDS011;59284;31.390;34.904;2023-04-24T09:49:09;6.55;;;1.52;;
70744;SDS011;59284;31.390;34.904;2023-04-24T09:51:36;6.65;;;1.25;;
70744;SDS011;59284;31.390;34.904;2023-04-24T09:54:03;10.85;;;1.30;;
70744;SDS011;59284;31.390;34.904;2023-04-24T09:56:32;7.57;;;1.57;;
70744;SDS011;59284;31.390;34.904;2023-04-24T09:59:07;9.10;;;1.30;;
70744;SDS011;59284;31.390;34.904;2023-04-24T10:01:33;7.07;;;1.45;;
70744;SDS011;59284;31.390;34.904;2023-04-24T10:03:59;7.97;;;1.55;;
70744;SDS011;59284;31.390;34.904;2023-04-24T10:06:32;9.53;;;1.70;;
70744;SDS011;59284;31.390;34.904;2023-04-24T10:08:59;12.40;;;1.63;;
70744;SDS011;59284;31.390;34.904;2023-04-24T10:11:26;11.50;;;1.92;;
70744;SDS011;59284;31.390;34.904;2023-04-24T10:13:52;6.55;;;2.05;;
70744;SDS011;59284;31.390;34.904;2023-04-24T10:16:18;6.45;;;1.73;;
70744;SDS011;59284;31.390;34.904;2023-04-24T10:18:45;9.40;;;1.45;;
70744;SDS011;59284;31.390;34.904;2023-04-24T10:21:12;7.67;;;1.63;;
70744;SDS011;59284;31.390;34.904;2023-04-24T10:23:38;6.63;;;1.80;;
70744;SDS011;59284;31.390;34.904;2023-04-24T10:26:04;6.10;;;1.25;;
70744;SDS011;59284;31.390;34.904;2023-04-24T10:28:30;5.63;;;1.37;;
70744;SDS011;59284;31.390;34.904;2023-04-24T10:30:56;11.10;;;2.03;;
70744;SDS011;59284;31.390;34.904;2023-04-24T10:33:22;6.63;;;1.73;;
70744;SDS011;59284;31.390;34.904;2023-04-24T10:35:48;10.63;;;1.77;;
70744;SDS011;59284;31.390;34.904;2023-04-24T10:38:17;9.20;;;2.08;;
70744;SDS011;59284;31.390;34.904;2023-04-24T10:40:49;12.07;;;2.08;;
70744;SDS011;59284;31.390;34.904;2023-04-24T10:43:16;7.57;;;1.77;;
70744;SDS011;59284;31.390;34.904;2023-04-24T10:45:42;10.50;;;1.60;;
70744;SDS011;59284;31.390;34.904;2023-04-24T10:48:28;7.40;;;1.70;;
70744;SDS011;59284;31.390;34.904;2023-04-24T10:50:55;9.70;;;2.08;;
70744;SDS011;59284;31.390;34.904;2023-04-24T10:53:24;9.00;;;2.33;;
70744;SDS011;59284;31.390;34.904;2023-04-24T10:56:02;13.00;;;2.90;;
70744;SDS011;59284;31.390;34.904;2023-04-24T10:58:39;11.32;;;2.75;;
70744;SDS011;59284;31.390;34.904;2023-04-24T11:01:09;10.27;;;2.00;;
70744;SDS011;59284;31.390;34.904;2023-04-24T11:03:58;7.93;;;2.03;;
70744;SDS011;59284;31.390;34.904;2023-04-24T11:06:32;9.45;;;2.25;;
70744;SDS011;59284;31.390;34.904;2023-04-24T11:09:03;10.60;;;2.63;;
70744;SDS011;59284;31.390;34.904;2023-04-24T11:11:31;13.35;;;2.30;;
70744;SDS011;59284;31.390;34.904;2023-04-24T11:27:00;15.30;;;3.08;;
70744;SDS011;59284;31.390;34.904;2023-04-24T11:29:43;13.75;;;2.97;;
70744;SDS011;59284;31.390;34.904;2023-04-24T11:32:15;16.90;;;3.03;;
70744;SDS011;59284;31.390;34.904;2023-04-24T11:34:46;11.55;;;2.35;;
70744;SDS011;59284;31.390;34.904;2023-04-24T11:37:13;11.20;;;1.87;;
70744;SDS011;59284;31.390;34.904;2023-04-24T11:39:39;15.15;;;2.30;;
70744;SDS011;59284;31.390;34.904;2023-04-24T11:42:07;11.38;;;2.60;;
70744;SDS011;59284;31.390;34.904;2023-04-24T11:44:33;9.05;;;2.17;;
70744;SDS011;59284;31.390;34.904;2023-04-24T11:47:00;9.75;;;2.78;;
70744;SDS011;59284;31.390;34.904;2023-04-24T11:49:25;13.57;;;2.33;;
70744;SDS011;59284;31.390;34.904;2023-04-24T11:51:54;12.67;;;2.53;;
70744;SDS011;59284;31.390;34.904;2023-04-24T11:54:20;12.70;;;1.90;;
70744;SDS011;59284;31.390;34.904;2023-04-24T11:56:46;8.88;;;2.05;;
70744;SDS011;59284;31.390;34.904;2023-04-24T11:59:12;12.27;;;3.50;;
70744;SDS011;59284;31.390;34.904;2023-04-24T12:01:44;14.00;;;2.40;;
70744;SDS011;59284;31.390;34.904;2023-04-24T12:04:11;10.75;;;1.92;;
70744;SDS011;59284;31.390;34.904;2023-04-24T12:06:37;9.20;;;2.00;;
70744;SDS011;59284;31.390;34.904;2023-04-24T12:09:02;12.57;;;2.63;;
70744;SDS011;59284;31.390;34.904;2023-04-24T12:11:28;13.57;;;2.95;;
70744;SDS011;59284;31.390;34.904;2023-04-24T12:13:54;11.40;;;2.23;;
70744;SDS011;59284;31.390;34.904;2023-04-24T12:16:19;11.50;;;2.57;;
70744;SDS011;59284;31.390;34.904;2023-04-24T12:18:45;11.60;;;2.20;;
70744;SDS011;59284;31.390;34.904;2023-04-24T12:21:14;14.23;;;2.65;;
70744;SDS011;59284;31.390;34.904;2023-04-24T12:23:47;11.15;;;2.55;;
70744;SDS011;59284;31.390;34.904;2023-04-24T12:26:19;13.00;;;2.80;;
70744;SDS011;59284;31.390;34.904;2023-04-24T12:28:47;10.10;;;2.63;;
70744;SDS011;59284;31.390;34.904;2023-04-24T12:31:16;9.75;;;2.08;;
70744;SDS011;59284;31.390;34.904;2023-04-24T12:33:42;9.10;;;2.03;;
70744;SDS011;59284;31.390;34.904;2023-04-24T12:36:11;9.90;;;2.47;;
70744;SDS011;59284;31.390;34.904;2023-04-24T12:38:37;12.30;;;2.57;;
70744;SDS011;59284;31.390;34.904;2023-04-24T12:41:10;9.15;;;2.25;;
70744;SDS011;59284;31.390;34.904;2023-04-24T12:43:37;9.68;;;2.10;;
70744;SDS011;59284;31.390;34.904;2023-04-24T12:46:04;8.63;;;1.57;;
70744;SDS011;59284;31.390;34.904;2023-04-24T12:48:30;6.15;;;1.67;;
70744;SDS011;59284;31.390;34.904;2023-04-24T12:50:59;10.27;;;2.13;;
70744;SDS011;59284;31.390;34.904;2023-04-24T12:53:28;9.23;;;1.73;;
70744;SDS011;59284;31.390;34.904;2023-04-24T12:55:57;13.57;;;2.25;;
70744;SDS011;59284;31.390;34.904;2023-04-24T12:58:22;9.97;;;2.50;;
70744;SDS011;59284;31.390;34.904;2023-04-24T13:00:48;8.73;;;1.63;;
70744;SDS011;59284;31.390;34.904;2023-04-24T13:03:14;9.93;;;1.83;;
70744;SDS011;59284;31.390;34.904;2023-04-24T13:05:40;12.70;;;2.03;;
70744;SDS011;59284;31.390;34.904;2023-04-24T13:08:07;9.87;;;2.27;;
70744;SDS011;59284;31.390;34.904;2023-04-24T13:10:32;11.15;;;2.08;;
70744;SDS011;59284;31.390;34.904;2023-04-24T13:12:59;14.68;;;2.58;;
70744;SDS011;59284;31.390;34.904;2023-04-24T13:15:24;8.20;;;1.80;;
70744;SDS011;59284;31.390;34.904;2023-04-24T13:17:50;13.85;;;2.88;;
70744;SDS011;59284;31.390;34.904;2023-04-24T13:20:16;9.87;;;1.67;;
70744;SDS011;59284;31.390;34.904;2023-04-24T13:22:42;14.07;;;2.28;;
70744;SDS011;59284;31.390;34.904;2023-04-24T13:25:08;8.57;;;1.90;;
70744;SDS011;59284;31.390;34.904;2023-04-24T13:27:34;8.20;;;1.67;;
70744;SDS011;59284;31.390;34.904;2023-04-24T13:29:59;9.85;;;2.53;;
70744;SDS011;59284;31.390;34.904;2023-04-24T13:32:25;13.80;;;2.00;;
70744;SDS011;59284;31.390;34.904;2023-04-24T13:34:51;10.05;;;2.00;;
70744;SDS011;59284;31.390;34.904;2023-04-24T13:37:17;8.68;;;2.10;;
70744;SDS011;59284;31.390;34.904;2023-04-24T13:39:43;9.93;;;1.90;;
70744;SDS011;59284;31.390;34.904;2023-04-24T13:42:08;7.20;;;2.05;;
70744;SDS011;59284;31.390;34.904;2023-04-24T13:44:34;6.97;;;2.40;;
70744;SDS011;59284;31.390;34.904;2023-04-24T13:47:00;8.35;;;2.00;;
70744;SDS011;59284;31.390;34.904;2023-04-24T13:49:26;7.33;;;2.00;;
70744;SDS011;59284;31.390;34.904;2023-04-24T13:51:52;11.68;;;2.35;;
70744;SDS011;59284;31.390;34.904;2023-04-24T13:54:19;11.43;;;2.22;;
70744;SDS011;59284;31.390;34.904;2023-04-24T13:56:44;7.23;;;1.50;;
70744;SDS011;59284;31.390;34.904;2023-04-24T13:59:11;9.68;;;1.98;;
70744;SDS011;59284;31.390;34.904;2023-04-24T14:01:37;11.90;;;2.17;;
70744;SDS011;59284;31.390;34.904;2023-04-24T14:04:04;11.35;;;2.20;;
70744;SDS011;59284;31.390;34.904;2023-04-24T14:06:29;7.90;;;1.70;;
70744;SDS011;59284;31.390;34.904;2023-04-24T14:08:56;8.77;;;1.60;;
70744;SDS011;59284;31.390;34.904;2023-04-24T14:11:21;5.33;;;1.60;;
70744;SDS011;59284;31.390;34.904;2023-04-24T14:13:47;11.88;;;2.05;;
70744;SDS011;59284;31.390;34.904;2023-04-24T14:16:13;10.90;;;1.90;;
70744;SDS011;59284;31.390;34.904;2023-04-24T14:18:39;12.37;;;2.33;;
70744;SDS011;59284;31.390;34.904;2023-04-24T14:21:05;12.27;;;2.15;;
70744;SDS011;59284;31.390;34.904;2023-04-24T14:23:31;5.40;;;1.77;;
70744;SDS011;59284;31.390;34.904;2023-04-24T14:25:57;10.68;;;2.40;;
70744;SDS011;59284;31.390;34.904;2023-04-24T14:28:23;12.15;;;1.70;;
70744;SDS011;59284;31.390;34.904;2023-04-24T14:30:49;9.60;;;1.92;;
70744;SDS011;59284;31.390;34.904;2023-04-24T14:33:15;9.03;;;2.13;;
70744;SDS011;59284;31.390;34.904;2023-04-24T14:35:41;7.38;;;1.92;;
70744;SDS011;59284;31.390;34.904;2023-04-24T14:38:10;9.95;;;1.63;;
70744;SDS011;59284;31.390;34.904;2023-04-24T14:40:36;15.27;;;2.17;;